createdAt,value
2023-03-07T00:01:35.408Z,81.90
2023-03-07T00:04:02.618Z,81.60
2023-03-07T00:06:29.600Z,82.40
2023-03-07T00:09:00.869Z,82.10
2023-03-07T00:11:28.333Z,82.00
2023-03-07T00:13:55.845Z,82.20
2023-03-07T00:16:24.670Z,82.10
2023-03-07T00:18:51.629Z,82.50
2023-03-07T00:21:20.795Z,82.30
2023-03-07T00:23:48.395Z,82.00
2023-03-07T00:26:20.993Z,82.20
2023-03-07T00:28:50.172Z,82.20
2023-03-07T00:31:18.306Z,82.30
2023-03-07T00:33:45.891Z,82.30
2023-03-07T00:36:16.251Z,82.30
2023-03-07T00:38:43.629Z,82.50
2023-03-07T00:41:16.712Z,82.60
2023-03-07T00:43:44.214Z,82.70
2023-03-07T00:46:11.144Z,82.60
2023-03-07T00:48:39.479Z,82.60
2023-03-07T00:51:09.129Z,82.50
2023-03-07T00:53:36.407Z,82.60
2023-03-07T00:56:10.168Z,82.50
2023-03-07T00:58:37.306Z,82.60
2023-03-07T01:01:06.611Z,82.60
2023-03-07T01:03:34.708Z,82.70
2023-03-07T01:06:11.910Z,82.70
2023-03-07T01:08:38.817Z,82.60
2023-03-07T01:11:06.993Z,82.60
2023-03-07T01:13:35.471Z,82.80
2023-03-07T01:16:13.701Z,82.60
2023-03-07T01:18:41.300Z,82.50
2023-03-07T01:21:17.249Z,82.30
2023-03-07T01:23:44.299Z,82.50
2023-03-07T01:26:16.129Z,82.50
2023-03-07T01:28:43.461Z,82.40
2023-03-07T01:31:10.726Z,82.10
2023-03-07T01:33:38.138Z,81.90
2023-03-07T01:36:05.923Z,82.30
2023-03-07T01:38:34.244Z,82.10
2023-03-07T01:41:02.316Z,82.10
2023-03-07T01:43:34.070Z,82.10
2023-03-07T01:46:19.424Z,82.10
2023-03-07T01:48:50.678Z,82.00
2023-03-07T01:51:19.133Z,82.30
2023-03-07T01:53:48.442Z,82.50
2023-03-07T01:56:15.463Z,82.40
2023-03-07T01:58:42.936Z,82.30
2023-03-07T02:01:14.481Z,82.30
2023-03-07T02:04:11.433Z,82.10
2023-03-07T02:06:39.377Z,82.20
2023-03-07T02:09:13.976Z,82.10
2023-03-07T02:11:42.892Z,82.10
2023-03-07T02:14:10.246Z,82.20
2023-03-07T02:16:38.917Z,82.50
2023-03-07T02:19:31.256Z,82.40
2023-03-07T02:22:13.917Z,82.30
2023-03-07T02:24:57.708Z,82.40
2023-03-07T02:27:29.945Z,82.40
2023-03-07T02:29:56.739Z,82.30
2023-03-07T02:32:23.620Z,82.30
2023-03-07T02:34:50.448Z,82.30
2023-03-07T02:37:22.514Z,82.50
2023-03-07T02:39:50.863Z,82.50
2023-03-07T02:42:22.164Z,82.80
2023-03-07T02:44:57.573Z,82.80
2023-03-07T02:47:24.440Z,82.80
2023-03-07T02:49:51.330Z,82.90
2023-03-07T02:52:19.736Z,83.00
2023-03-07T02:54:46.440Z,83.00
2023-03-07T02:57:14.085Z,82.70
2023-03-07T02:59:40.889Z,82.60
2023-03-07T03:02:07.797Z,82.70
2023-03-07T03:04:34.666Z,82.40
2023-03-07T03:07:01.537Z,82.70
2023-03-07T03:09:28.351Z,82.30
2023-03-07T03:11:55.310Z,82.40
2023-03-07T03:14:22.097Z,82.30
2023-03-07T03:16:49.623Z,82.60
2023-03-07T03:19:16.401Z,82.40
2023-03-07T03:21:43.926Z,82.30
2023-03-07T03:24:11.661Z,82.30
2023-03-07T03:26:38.875Z,82.70
2023-03-07T03:29:06.403Z,82.60
2023-03-07T03:31:35.048Z,82.70
2023-03-07T03:34:01.914Z,82.50
2023-03-07T03:36:28.804Z,82.40
2023-03-07T03:38:57.338Z,82.30
2023-03-07T03:41:26.880Z,82.40
2023-03-07T03:43:54.334Z,82.20
2023-03-07T03:46:21.307Z,82.50
2023-03-07T03:48:53.434Z,82.40
2023-03-07T03:51:20.987Z,82.30
2023-03-07T03:53:48.263Z,82.20
2023-03-07T03:56:17.988Z,82.10
2023-03-07T03:58:47.914Z,82.00
2023-03-07T04:01:14.693Z,81.90
2023-03-07T04:03:44.535Z,82.00
2023-03-07T04:06:20.601Z,81.90
2023-03-07T04:08:47.993Z,81.60
2023-03-07T04:11:15.142Z,81.80
2023-03-07T04:13:41.992Z,82.20
2023-03-07T04:16:09.051Z,81.90
2023-03-07T04:18:36.867Z,81.90
2023-03-07T04:21:06.113Z,81.90
2023-03-07T04:23:33.786Z,82.00
2023-03-07T04:26:02.540Z,82.10
2023-03-07T04:28:43.580Z,82.00
2023-03-07T04:31:15.745Z,81.90
2023-03-07T04:33:43.032Z,81.80
2023-03-07T04:36:10.971Z,82.10
2023-03-07T04:38:39.180Z,82.30
2023-03-07T04:41:07.271Z,82.40
2023-03-07T04:43:34.642Z,82.60
2023-03-07T04:46:01.683Z,82.40
2023-03-07T04:48:28.625Z,82.50
2023-03-07T04:50:55.578Z,82.70
2023-03-07T04:53:22.584Z,82.90
2023-03-07T04:55:49.458Z,82.60
2023-03-07T04:58:16.334Z,82.90
2023-03-07T05:00:44.688Z,82.70
2023-03-07T05:03:13.294Z,82.70
2023-03-07T05:05:40.347Z,82.80
2023-03-07T05:08:07.454Z,82.50
2023-03-07T05:10:35.465Z,82.60
2023-03-07T05:13:02.662Z,82.60
2023-03-07T05:15:29.890Z,82.50
2023-03-07T05:17:56.612Z,82.60
2023-03-07T05:20:23.636Z,82.40
2023-03-07T05:22:50.909Z,82.00
2023-03-07T05:25:19.013Z,82.40
2023-03-07T05:27:45.721Z,82.20
2023-03-07T05:30:12.945Z,82.30
2023-03-07T05:32:39.971Z,82.40
2023-03-07T05:35:08.909Z,82.30
2023-03-07T05:37:35.851Z,82.40
2023-03-07T05:40:05.614Z,82.70
2023-03-07T05:42:32.420Z,82.40
2023-03-07T05:44:59.236Z,82.50
2023-03-07T05:47:26.082Z,82.60
2023-03-07T05:49:53.015Z,82.30
2023-03-07T05:52:20.652Z,82.00
2023-03-07T05:54:47.813Z,82.00
2023-03-07T05:57:15.078Z,82.00
2023-03-07T05:59:41.853Z,81.80
2023-03-07T06:02:08.732Z,81.80
2023-03-07T06:04:35.504Z,81.90
2023-03-07T06:07:02.304Z,81.80
2023-03-07T06:09:29.080Z,81.70
2023-03-07T06:11:56.145Z,81.50
2023-03-07T06:14:22.992Z,81.50
2023-03-07T06:16:49.761Z,81.60
2023-03-07T06:19:16.592Z,81.30
2023-03-07T06:21:44.009Z,81.20
2023-03-07T06:24:10.826Z,81.30
2023-03-07T06:26:37.695Z,81.20
2023-03-07T06:29:04.548Z,81.00
2023-03-07T06:31:31.486Z,81.50
2023-03-07T06:33:58.338Z,81.30
2023-03-07T06:36:25.151Z,81.90
2023-03-07T06:38:51.989Z,82.00
2023-03-07T06:41:18.793Z,81.90
2023-03-07T06:43:45.573Z,81.80
2023-03-07T06:46:12.476Z,81.40
2023-03-07T06:48:39.369Z,81.70
2023-03-07T06:51:10.321Z,81.40
2023-03-07T06:53:37.156Z,81.30
2023-03-07T06:56:04.365Z,81.40
2023-03-07T06:58:31.130Z,81.40
2023-03-07T07:00:58.107Z,81.50
2023-03-07T07:03:25.322Z,81.60
2023-03-07T07:05:52.068Z,81.80
2023-03-07T07:08:18.842Z,81.40
2023-03-07T07:10:45.605Z,80.80
2023-03-07T07:13:12.724Z,80.30
2023-03-07T07:15:39.598Z,79.90
2023-03-07T07:18:06.415Z,80.10
2023-03-07T07:20:33.384Z,79.80
2023-03-07T07:23:00.289Z,79.40
2023-03-07T07:25:27.181Z,78.70
2023-03-07T07:27:53.952Z,76.90
2023-03-07T07:30:20.713Z,76.00
2023-03-07T07:32:48.238Z,76.50
2023-03-07T07:35:15.150Z,76.70
2023-03-07T07:37:42.008Z,76.40
2023-03-07T07:40:10.674Z,76.20
2023-03-07T07:42:37.889Z,75.80
2023-03-07T07:45:06.592Z,75.50
2023-03-07T07:47:33.409Z,76.00
2023-03-07T07:50:00.284Z,75.70
2023-03-07T07:52:27.120Z,75.30
2023-03-07T07:54:55.126Z,76.10
2023-03-07T07:57:24.531Z,76.00
2023-03-07T07:59:51.437Z,76.40
2023-03-07T08:02:18.293Z,77.00
2023-03-07T08:04:46.238Z,76.90
2023-03-07T08:07:14.200Z,76.60
2023-03-07T08:09:41.059Z,76.20
2023-03-07T08:12:11.583Z,76.30
2023-03-07T08:14:39.185Z,75.30
2023-03-07T08:17:06.161Z,75.00
2023-03-07T08:19:33.117Z,74.90
2023-03-07T08:22:00.507Z,74.70
2023-03-07T08:24:40.011Z,73.90
2023-03-07T08:27:08.775Z,73.10
2023-03-07T08:29:35.786Z,72.80
2023-03-07T08:32:02.789Z,72.70
2023-03-07T08:34:32.131Z,72.10
2023-03-07T08:36:58.924Z,71.90
2023-03-07T08:39:25.761Z,71.40
2023-03-07T08:41:55.172Z,70.00
2023-03-07T08:44:21.936Z,69.90
2023-03-07T08:46:49.053Z,69.90
2023-03-07T08:49:15.856Z,69.10
2023-03-07T08:51:42.672Z,68.40
2023-03-07T08:54:09.478Z,67.90
2023-03-07T08:56:36.332Z,67.60
2023-03-07T08:59:03.189Z,67.40
2023-03-07T09:01:30.069Z,66.60
2023-03-07T09:03:56.856Z,66.60
2023-03-07T09:06:23.684Z,66.10
2023-03-07T09:08:51.065Z,66.30
2023-03-07T09:11:19.143Z,66.40
2023-03-07T09:13:52.418Z,65.30
2023-03-07T09:16:20.850Z,65.50
2023-03-07T09:18:47.720Z,65.40
2023-03-07T09:21:14.545Z,64.70
2023-03-07T09:23:43.164Z,64.70
2023-03-07T09:26:10.335Z,64.30
2023-03-07T09:28:37.256Z,64.50
2023-03-07T09:31:09.161Z,64.50
2023-03-07T09:33:36.222Z,64.30
2023-03-07T09:36:12.088Z,63.90
2023-03-07T09:38:39.805Z,63.70
2023-03-07T09:41:06.620Z,62.80
2023-03-07T09:43:47.401Z,62.80
2023-03-07T09:46:58.926Z,62.70
2023-03-07T09:49:48.481Z,61.50
2023-03-07T09:52:18.789Z,61.00
2023-03-07T09:55:05.123Z,59.80
2023-03-07T09:57:34.746Z,60.00
2023-03-07T10:00:24.526Z,58.60
2023-03-07T10:03:03.160Z,59.20
2023-03-07T10:05:43.742Z,58.20
2023-03-07T10:08:22.311Z,59.00
2023-03-07T10:10:49.079Z,57.80
2023-03-07T10:13:30.929Z,56.00
2023-03-07T10:16:19.518Z,56.30
2023-03-07T10:19:09.502Z,56.00
2023-03-07T10:21:42.002Z,56.10
2023-03-07T10:24:31.261Z,55.20
2023-03-07T10:27:19.247Z,54.80
2023-03-07T10:29:47.796Z,55.00
2023-03-07T10:32:48.353Z,53.60
2023-03-07T10:35:17.551Z,53.80
2023-03-07T10:37:50.426Z,52.90
2023-03-07T10:40:40.000Z,52.70
2023-03-07T10:43:07.507Z,52.80
2023-03-07T10:45:34.560Z,50.90
2023-03-07T10:48:08.116Z,51.70
2023-03-07T10:50:41.120Z,50.90
2023-03-07T10:53:27.715Z,50.20
2023-03-07T10:56:09.337Z,49.90
2023-03-07T10:58:36.266Z,50.40
2023-03-07T11:01:17.105Z,51.90
2023-03-07T11:04:05.043Z,51.10
2023-03-07T11:06:34.451Z,50.20
2023-03-07T11:09:14.667Z,49.00
2023-03-07T11:11:53.870Z,49.90
2023-03-07T11:14:22.038Z,49.00
2023-03-07T11:16:57.991Z,48.00
2023-03-07T11:19:42.114Z,48.50
2023-03-07T11:22:36.755Z,48.80
2023-03-07T11:25:27.313Z,48.70
2023-03-07T11:27:56.544Z,48.80
2023-03-07T11:30:48.598Z,49.30
2023-03-07T11:33:29.383Z,49.20
2023-03-07T11:36:05.604Z,50.10
2023-03-07T11:38:52.119Z,50.40
2023-03-07T11:41:38.307Z,51.10
2023-03-07T11:44:16.982Z,51.30
2023-03-07T11:47:10.000Z,51.00
2023-03-07T11:49:57.585Z,50.70
2023-03-07T11:52:53.044Z,51.40
2023-03-07T11:55:26.593Z,51.90
2023-03-07T11:58:21.290Z,51.30
2023-03-07T12:00:53.717Z,50.80
2023-03-07T12:03:48.481Z,51.90
2023-03-07T12:06:33.323Z,50.90
2023-03-07T12:09:22.000Z,49.40
2023-03-07T12:12:06.813Z,49.10
2023-03-07T12:14:45.927Z,49.40
2023-03-07T12:17:31.773Z,49.80
2023-03-07T12:20:10.709Z,50.40
2023-03-07T12:23:07.965Z,50.00
2023-03-07T12:25:45.061Z,51.40
2023-03-07T12:28:52.462Z,52.00
2023-03-07T12:31:32.854Z,52.60
2023-03-07T12:34:15.601Z,52.30
2023-03-07T12:36:51.371Z,52.20
2023-03-07T12:39:21.471Z,51.40
2023-03-07T12:41:56.846Z,50.70
2023-03-07T12:44:38.549Z,50.30
2023-03-07T12:47:15.011Z,51.00
2023-03-07T12:50:03.489Z,52.50
2023-03-07T12:52:36.233Z,53.90
2023-03-07T12:55:25.813Z,54.80
2023-03-07T12:58:14.442Z,55.00
2023-03-07T13:00:47.365Z,55.70
2023-03-07T13:03:30.737Z,57.40
2023-03-07T13:05:58.062Z,57.60
2023-03-07T13:08:26.072Z,58.20
2023-03-07T13:10:53.450Z,58.70
2023-03-07T13:13:42.489Z,58.90
2023-03-07T13:16:12.857Z,58.90
2023-03-07T13:18:39.905Z,59.80
2023-03-07T13:21:09.807Z,59.80
2023-03-07T13:23:36.657Z,58.80
2023-03-07T13:26:06.777Z,58.60
2023-03-07T13:28:46.567Z,59.50
2023-03-07T13:31:16.108Z,59.00
2023-03-07T13:33:43.739Z,59.60
2023-03-07T13:36:37.966Z,59.80
2023-03-07T13:39:37.681Z,59.50
2023-03-07T13:42:05.089Z,59.70
2023-03-07T13:44:39.560Z,60.10
2023-03-07T13:47:44.138Z,60.70
2023-03-07T13:50:35.677Z,61.30
2023-03-07T13:53:11.755Z,61.60
2023-03-07T13:55:42.450Z,63.10
2023-03-07T13:58:37.557Z,65.10
2023-03-07T14:01:13.605Z,64.90
2023-03-07T14:03:53.338Z,66.70
2023-03-07T14:06:27.576Z,66.70
2023-03-07T14:08:55.326Z,67.90
2023-03-07T14:12:16.326Z,68.10
2023-03-07T14:14:59.847Z,67.60
2023-03-07T14:18:14.624Z,66.40
2023-03-07T14:21:21.338Z,66.20
2023-03-07T14:23:59.657Z,65.50
2023-03-07T14:26:29.099Z,65.40
2023-03-07T14:29:18.981Z,65.00
2023-03-07T14:31:50.906Z,64.50
2023-03-07T14:34:33.002Z,64.10
2023-03-07T14:37:01.353Z,63.70
2023-03-07T14:39:54.585Z,63.70
2023-03-07T14:42:45.098Z,63.30
2023-03-07T14:45:38.189Z,63.20
2023-03-07T14:48:37.534Z,62.60
2023-03-07T14:51:15.499Z,62.50
2023-03-07T14:53:43.197Z,61.90
2023-03-07T14:56:10.540Z,61.30
2023-03-07T14:58:48.344Z,61.10
2023-03-07T15:01:19.544Z,61.00
2023-03-07T15:03:55.308Z,59.80
2023-03-07T15:06:25.156Z,59.00
2023-03-07T15:08:55.470Z,57.80
2023-03-07T15:11:38.318Z,57.70
2023-03-07T15:14:06.972Z,57.10
2023-03-07T15:16:42.093Z,56.60
2023-03-07T15:19:21.885Z,54.60
2023-03-07T15:21:55.932Z,53.00
2023-03-07T15:24:38.968Z,52.50
2023-03-07T15:27:10.522Z,52.80
2023-03-07T15:29:40.297Z,51.40
2023-03-07T15:32:29.030Z,51.10
2023-03-07T15:35:19.192Z,50.00
2023-03-07T15:37:57.649Z,50.40
2023-03-07T15:40:31.453Z,49.40
2023-03-07T15:43:15.406Z,49.50
2023-03-07T15:45:44.816Z,49.90
2023-03-07T15:48:38.665Z,49.60
2023-03-07T15:51:10.483Z,49.80
2023-03-07T15:53:40.340Z,49.60
2023-03-07T15:56:30.458Z,49.90
2023-03-07T15:59:03.908Z,49.10
2023-03-07T16:01:30.728Z,48.90
2023-03-07T16:04:00.003Z,48.50
2023-03-07T16:06:33.121Z,48.40
2023-03-07T16:09:00.047Z,48.60
2023-03-07T16:11:26.839Z,48.40
2023-03-07T16:13:53.741Z,48.00
2023-03-07T16:16:24.462Z,48.10
2023-03-07T16:18:52.107Z,48.50
2023-03-07T16:21:20.061Z,48.80
2023-03-07T16:23:47.553Z,49.00
2023-03-07T16:26:17.820Z,48.70
2023-03-07T16:28:44.609Z,49.50
2023-03-07T16:31:12.941Z,49.20
2023-03-07T16:33:40.225Z,49.90
2023-03-07T16:36:08.313Z,50.10
2023-03-07T16:38:35.178Z,49.70
2023-03-07T16:41:06.082Z,49.80
2023-03-07T16:43:36.386Z,50.10
2023-03-07T16:46:06.060Z,50.70
2023-03-07T16:48:33.421Z,51.20
2023-03-07T16:51:00.273Z,51.60
2023-03-07T16:53:27.128Z,52.90
2023-03-07T16:55:56.467Z,52.80
2023-03-07T16:58:27.639Z,52.70
2023-03-07T17:00:54.520Z,53.10
2023-03-07T17:03:21.457Z,53.30
2023-03-07T17:05:48.306Z,53.90
2023-03-07T17:08:15.184Z,54.10
2023-03-07T17:10:44.577Z,53.80
2023-03-07T17:13:17.592Z,54.10
2023-03-07T17:15:45.514Z,53.70
2023-03-07T17:18:13.037Z,53.80
2023-03-07T17:20:40.764Z,55.00
2023-03-07T17:23:08.308Z,54.90
2023-03-07T17:25:35.500Z,54.40
2023-03-07T17:28:12.940Z,55.20
2023-03-07T17:30:43.036Z,55.00
2023-03-07T17:33:11.534Z,55.20
2023-03-07T17:35:38.359Z,54.90
2023-03-07T17:38:05.178Z,54.60
2023-03-07T17:40:32.050Z,55.10
2023-03-07T17:42:59.448Z,55.30
2023-03-07T17:45:26.346Z,55.30
2023-03-07T17:47:55.158Z,55.20
2023-03-07T17:50:24.069Z,55.50
2023-03-07T17:52:55.065Z,55.70
2023-03-07T17:55:25.038Z,55.40
2023-03-07T17:57:52.340Z,55.60
2023-03-07T18:00:20.992Z,56.30
2023-03-07T18:02:48.269Z,56.00
2023-03-07T18:05:15.228Z,56.60
2023-03-07T18:07:42.096Z,56.90
2023-03-07T18:10:10.603Z,57.10
2023-03-07T18:12:39.413Z,57.20
2023-03-07T18:15:14.597Z,56.30
2023-03-07T18:17:48.451Z,56.70
2023-03-07T18:20:17.850Z,57.90
2023-03-07T18:22:44.937Z,57.20
2023-03-07T18:25:14.423Z,56.70
2023-03-07T18:27:41.456Z,56.90
2023-03-07T18:30:09.368Z,56.60
2023-03-07T18:32:38.522Z,56.90
2023-03-07T18:35:06.022Z,56.50
2023-03-07T18:37:32.817Z,57.00
2023-03-07T18:39:59.721Z,57.80
2023-03-07T18:42:27.504Z,58.00
2023-03-07T18:44:54.645Z,58.40
2023-03-07T18:47:23.627Z,58.60
2023-03-07T18:49:51.367Z,58.00
2023-03-07T18:52:18.917Z,57.80
2023-03-07T18:54:47.634Z,57.60
2023-03-07T18:57:14.444Z,56.90
2023-03-07T18:59:41.313Z,57.10
2023-03-07T19:02:10.064Z,57.10
2023-03-07T19:04:36.937Z,56.80
2023-03-07T19:07:04.130Z,57.30
2023-03-07T19:09:31.666Z,57.90
2023-03-07T19:11:58.562Z,58.00
2023-03-07T19:14:26.389Z,57.50
2023-03-07T19:16:53.297Z,58.40
2023-03-07T19:19:20.397Z,58.90
2023-03-07T19:21:47.224Z,58.90
2023-03-07T19:24:14.077Z,59.00
2023-03-07T19:26:42.736Z,59.30
2023-03-07T19:29:12.152Z,58.70
2023-03-07T19:31:39.423Z,59.40
2023-03-07T19:34:06.534Z,59.50
2023-03-07T19:36:35.357Z,58.80
2023-03-07T19:39:02.425Z,58.90
2023-03-07T19:41:31.448Z,59.10
2023-03-07T19:43:59.875Z,59.00
2023-03-07T19:46:27.264Z,58.80
2023-03-07T19:48:54.142Z,58.90
2023-03-07T19:51:23.929Z,59.60
2023-03-07T19:53:50.812Z,60.00
2023-03-07T19:56:27.252Z,59.20
2023-03-07T19:58:54.942Z,59.10
2023-03-07T20:01:23.302Z,59.90
2023-03-07T20:03:51.101Z,59.40
2023-03-07T20:06:25.189Z,59.60
2023-03-07T20:08:52.539Z,60.30
2023-03-07T20:11:20.582Z,60.10
2023-03-07T20:13:48.768Z,61.30
2023-03-07T20:16:17.374Z,61.40
2023-03-07T20:18:44.338Z,61.70
2023-03-07T20:21:13.168Z,61.50
2023-03-07T20:23:42.686Z,61.90
2023-03-07T20:26:22.720Z,61.40
2023-03-07T20:28:54.169Z,61.60
2023-03-07T20:31:22.252Z,62.00
2023-03-07T20:33:49.955Z,61.80
2023-03-07T20:36:25.669Z,61.30
2023-03-07T20:38:57.901Z,60.70
2023-03-07T20:41:27.829Z,60.70
2023-03-07T20:43:58.348Z,61.20
2023-03-07T20:46:25.420Z,61.70
2023-03-07T20:48:55.184Z,61.50
2023-03-07T20:51:25.022Z,62.20
2023-03-07T20:53:57.228Z,62.60
2023-03-07T20:56:26.098Z,63.20
2023-03-07T20:58:53.925Z,63.10
2023-03-07T21:01:21.648Z,63.30
2023-03-07T21:03:48.918Z,64.40
2023-03-07T21:06:16.540Z,65.00
2023-03-07T21:08:44.084Z,65.50
2023-03-07T21:11:16.279Z,65.70
2023-03-07T21:13:45.382Z,66.40
2023-03-07T21:16:23.542Z,67.10
2023-03-07T21:18:50.391Z,67.10
2023-03-07T21:21:19.820Z,66.80
2023-03-07T21:23:47.020Z,67.10
2023-03-07T21:26:23.110Z,66.60
2023-03-07T21:28:51.323Z,66.80
2023-03-07T21:31:24.523Z,67.20
2023-03-07T21:33:54.569Z,67.20
2023-03-07T21:36:21.943Z,67.60
2023-03-07T21:38:49.523Z,67.60
2023-03-07T21:41:18.910Z,67.40
2023-03-07T21:43:46.002Z,67.60
2023-03-07T21:46:13.741Z,67.50
2023-03-07T21:48:41.274Z,67.20
2023-03-07T21:51:08.546Z,67.70
2023-03-07T21:53:36.293Z,68.20
2023-03-07T21:56:17.240Z,68.20
2023-03-07T21:58:48.145Z,67.20
2023-03-07T22:01:26.874Z,66.90
2023-03-07T22:03:59.227Z,66.70
2023-03-07T22:06:27.575Z,67.00
2023-03-07T22:08:54.980Z,66.70
2023-03-07T22:11:22.155Z,66.90
2023-03-07T22:13:49.188Z,66.90
2023-03-07T22:16:20.648Z,67.30
2023-03-07T22:18:55.506Z,66.80
2023-03-07T22:21:25.172Z,66.90
2023-03-07T22:23:57.706Z,67.70
2023-03-07T22:26:25.334Z,67.70
2023-03-07T22:28:53.836Z,67.40
2023-03-07T22:31:20.780Z,68.10
2023-03-07T22:33:47.892Z,67.10
2023-03-07T22:36:15.389Z,67.40
2023-03-07T22:38:43.278Z,67.40
2023-03-07T22:41:12.968Z,67.10
2023-03-07T22:43:40.395Z,68.10
2023-03-07T22:46:07.333Z,67.70
2023-03-07T22:48:34.609Z,67.60
2023-03-07T22:51:02.155Z,67.80
2023-03-07T22:53:33.618Z,67.30
2023-03-07T22:56:00.893Z,67.40
2023-03-07T22:58:28.862Z,67.60
2023-03-07T23:00:55.658Z,67.80
2023-03-07T23:03:23.558Z,67.90
2023-03-07T23:05:50.580Z,67.80
2023-03-07T23:08:17.566Z,67.10
2023-03-07T23:10:44.425Z,68.20
2023-03-07T23:13:11.470Z,68.20
2023-03-07T23:15:41.874Z,68.20
2023-03-07T23:18:09.016Z,68.30
2023-03-07T23:20:38.956Z,68.40
2023-03-07T23:23:06.301Z,67.60
2023-03-07T23:25:33.568Z,67.90
2023-03-07T23:28:00.427Z,68.00
2023-03-07T23:30:27.426Z,68.20
2023-03-07T23:32:55.399Z,67.70
2023-03-07T23:35:22.352Z,67.60
2023-03-07T23:37:49.309Z,67.50
2023-03-07T23:40:16.433Z,67.10
2023-03-07T23:42:43.348Z,67.50
2023-03-07T23:45:10.545Z,67.60
2023-03-07T23:47:37.457Z,67.90
2023-03-07T23:50:04.802Z,68.40
2023-03-07T23:52:31.669Z,68.40
2023-03-07T23:54:58.474Z,68.90
2023-03-07T23:57:25.361Z,68.80
2023-03-07T23:59:52.218Z,68.90
